sensor_id;sensor_type;location;lat;lon;timestamp;P1;durP1;ratioP1;P2;durP2;ratioP2
43118;SDS011;28729;49.838;8.650;2023-02-01T00:03:41;12.27;;;5.38;;
43118;SDS011;28729;49.838;8.650;2023-02-01T00:07:46;10.68;;;5.30;;
43118;SDS011;28729;49.838;8.650;2023-02-01T00:11:48;8.40;;;5.35;;
43118;SDS011;28729;49.838;8.650;2023-02-01T00:15:49;9.98;;;4.82;;
43118;SDS011;28729;49.838;8.650;2023-02-01T00:19:51;11.63;;;5.82;;
43118;SDS011;28729;49.838;8.650;2023-02-01T00:23:53;10.68;;;5.10;;
43118;SDS011;28729;49.838;8.650;2023-02-01T00:27:54;8.88;;;5.20;;
43118;SDS011;28729;49.838;8.650;2023-02-01T00:31:58;12.63;;;5.72;;
43118;SDS011;28729;49.838;8.650;2023-02-01T00:36:03;12.27;;;6.60;;
43118;SDS011;28729;49.838;8.650;2023-02-01T00:40:07;13.23;;;5.55;;
43118;SDS011;28729;49.838;8.650;2023-02-01T00:44:09;11.87;;;6.03;;
43118;SDS011;28729;49.838;8.650;2023-02-01T00:48:11;13.25;;;6.57;;
43118;SDS011;28729;49.838;8.650;2023-02-01T00:52:12;13.68;;;6.53;;
43118;SDS011;28729;49.838;8.650;2023-02-01T00:56:14;12.40;;;7.45;;
43118;SDS011;28729;49.838;8.650;2023-02-01T01:00:16;13.90;;;6.35;;
43118;SDS011;28729;49.838;8.650;2023-02-01T01:04:18;13.57;;;6.97;;
43118;SDS011;28729;49.838;8.650;2023-02-01T01:08:19;15.88;;;7.07;;
43118;SDS011;28729;49.838;8.650;2023-02-01T01:12:21;12.40;;;6.90;;
43118;SDS011;28729;49.838;8.650;2023-02-01T01:16:23;17.33;;;7.70;;
43118;SDS011;28729;49.838;8.650;2023-02-01T01:20:27;15.05;;;6.72;;
43118;SDS011;28729;49.838;8.650;2023-02-01T01:24:29;14.30;;;7.05;;
43118;SDS011;28729;49.838;8.650;2023-02-01T01:28:30;20.27;;;7.20;;
43118;SDS011;28729;49.838;8.650;2023-02-01T01:32:32;15.15;;;7.53;;
43118;SDS011;28729;49.838;8.650;2023-02-01T01:36:33;14.45;;;7.00;;
43118;SDS011;28729;49.838;8.650;2023-02-01T01:40:35;13.93;;;7.45;;
43118;SDS011;28729;49.838;8.650;2023-02-01T01:44:55;15.20;;;7.45;;
43118;SDS011;28729;49.838;8.650;2023-02-01T01:53:07;17.05;;;8.05;;
43118;SDS011;28729;49.838;8.650;2023-02-01T01:57:14;14.18;;;6.90;;
43118;SDS011;28729;49.838;8.650;2023-02-01T02:01:38;15.25;;;7.70;;
43118;SDS011;28729;49.838;8.650;2023-02-01T02:05:40;18.20;;;7.22;;
43118;SDS011;28729;49.838;8.650;2023-02-01T02:09:43;14.88;;;7.57;;
43118;SDS011;28729;49.838;8.650;2023-02-01T02:14:00;18.30;;;7.50;;
43118;SDS011;28729;49.838;8.650;2023-02-01T02:18:07;15.77;;;7.13;;
43118;SDS011;28729;49.838;8.650;2023-02-01T02:44:09;14.05;;;6.22;;
43118;SDS011;28729;49.838;8.650;2023-02-01T02:49:00;14.15;;;6.20;;
43118;SDS011;28729;49.838;8.650;2023-02-01T02:53:09;14.60;;;6.78;;
43118;SDS011;28729;49.838;8.650;2023-02-01T02:57:37;13.75;;;6.72;;
43118;SDS011;28729;49.838;8.650;2023-02-01T03:02:01;16.30;;;6.35;;
43118;SDS011;28729;49.838;8.650;2023-02-01T03:06:22;13.00;;;6.40;;
43118;SDS011;28729;49.838;8.650;2023-02-01T03:10:28;15.50;;;6.85;;
43118;SDS011;28729;49.838;8.650;2023-02-01T03:14:54;12.73;;;6.22;;
43118;SDS011;28729;49.838;8.650;2023-02-01T03:23:12;18.00;;;7.88;;
43118;SDS011;28729;49.838;8.650;2023-02-01T03:27:18;25.40;;;10.02;;
43118;SDS011;28729;49.838;8.650;2023-02-01T03:31:26;16.00;;;7.72;;
43118;SDS011;28729;49.838;8.650;2023-02-01T03:35:40;15.48;;;7.20;;
43118;SDS011;28729;49.838;8.650;2023-02-01T03:40:10;15.32;;;6.40;;
43118;SDS011;28729;49.838;8.650;2023-02-01T03:44:24;14.25;;;6.25;;
43118;SDS011;28729;49.838;8.650;2023-02-01T03:48:30;15.18;;;6.60;;
43118;SDS011;28729;49.838;8.650;2023-02-01T03:56:42;14.80;;;7.03;;
43118;SDS011;28729;49.838;8.650;2023-02-01T04:00:50;16.88;;;7.25;;
43118;SDS011;28729;49.838;8.650;2023-02-01T04:04:53;18.27;;;8.70;;
43118;SDS011;28729;49.838;8.650;2023-02-01T04:08:55;23.27;;;9.77;;
43118;SDS011;28729;49.838;8.650;2023-02-01T04:12:56;18.00;;;8.90;;
43118;SDS011;28729;49.838;8.650;2023-02-01T04:16:58;20.88;;;9.63;;
43118;SDS011;28729;49.838;8.650;2023-02-01T04:21:00;19.60;;;9.07;;
43118;SDS011;28729;49.838;8.650;2023-02-01T04:25:03;22.67;;;9.85;;
43118;SDS011;28729;49.838;8.650;2023-02-01T04:29:07;19.55;;;8.00;;
43118;SDS011;28729;49.838;8.650;2023-02-01T04:33:10;19.73;;;8.95;;
43118;SDS011;28729;49.838;8.650;2023-02-01T04:37:15;17.35;;;7.85;;
43118;SDS011;28729;49.838;8.650;2023-02-01T04:41:16;15.30;;;7.47;;
43118;SDS011;28729;49.838;8.650;2023-02-01T04:45:20;16.40;;;8.02;;
43118;SDS011;28729;49.838;8.650;2023-02-01T04:49:21;14.85;;;7.07;;
43118;SDS011;28729;49.838;8.650;2023-02-01T04:53:23;15.68;;;6.20;;
43118;SDS011;28729;49.838;8.650;2023-02-01T04:57:25;12.30;;;5.70;;
43118;SDS011;28729;49.838;8.650;2023-02-01T05:01:27;11.13;;;4.07;;
43118;SDS011;28729;49.838;8.650;2023-02-01T05:05:29;10.00;;;4.50;;
43118;SDS011;28729;49.838;8.650;2023-02-01T05:09:30;15.90;;;4.93;;
43118;SDS011;28729;49.838;8.650;2023-02-01T05:13:32;8.55;;;3.95;;
43118;SDS011;28729;49.838;8.650;2023-02-01T05:17:51;9.23;;;4.25;;
43118;SDS011;28729;49.838;8.650;2023-02-01T05:21:53;8.68;;;3.67;;
43118;SDS011;28729;49.838;8.650;2023-02-01T05:26:01;6.53;;;3.85;;
43118;SDS011;28729;49.838;8.650;2023-02-01T05:30:04;9.45;;;3.40;;
43118;SDS011;28729;49.838;8.650;2023-02-01T05:34:06;6.90;;;3.33;;
43118;SDS011;28729;49.838;8.650;2023-02-01T05:38:09;7.30;;;3.15;;
43118;SDS011;28729;49.838;8.650;2023-02-01T05:42:11;6.78;;;2.97;;
43118;SDS011;28729;49.838;8.650;2023-02-01T05:46:13;7.85;;;2.83;;
43118;SDS011;28729;49.838;8.650;2023-02-01T05:50:15;9.87;;;2.63;;
43118;SDS011;28729;49.838;8.650;2023-02-01T05:54:18;7.25;;;2.63;;
43118;SDS011;28729;49.838;8.650;2023-02-01T05:58:19;8.60;;;3.08;;
43118;SDS011;28729;49.838;8.650;2023-02-01T06:02:21;9.05;;;2.38;;
43118;SDS011;28729;49.838;8.650;2023-02-01T06:06:23;6.35;;;2.60;;
43118;SDS011;28729;49.838;8.650;2023-02-01T06:10:24;5.15;;;2.33;;
43118;SDS011;28729;49.838;8.650;2023-02-01T06:14:26;6.70;;;2.33;;
43118;SDS011;28729;49.838;8.650;2023-02-01T06:18:28;3.88;;;1.67;;
43118;SDS011;28729;49.838;8.650;2023-02-01T06:22:32;6.20;;;1.98;;
43118;SDS011;28729;49.838;8.650;2023-02-01T06:26:34;5.30;;;1.70;;
43118;SDS011;28729;49.838;8.650;2023-02-01T06:30:37;5.53;;;2.08;;
43118;SDS011;28729;49.838;8.650;2023-02-01T06:34:42;4.95;;;1.80;;
43118;SDS011;28729;49.838;8.650;2023-02-01T06:38:44;10.88;;;2.60;;
43118;SDS011;28729;49.838;8.650;2023-02-01T06:42:47;8.17;;;3.30;;
43118;SDS011;28729;49.838;8.650;2023-02-01T06:46:50;8.23;;;3.40;;
43118;SDS011;28729;49.838;8.650;2023-02-01T06:50:51;8.10;;;3.63;;
43118;SDS011;28729;49.838;8.650;2023-02-01T06:54:53;10.80;;;2.97;;
43118;SDS011;28729;49.838;8.650;2023-02-01T06:58:55;7.15;;;2.78;;
43118;SDS011;28729;49.838;8.650;2023-02-01T07:02:57;8.57;;;2.97;;
43118;SDS011;28729;49.838;8.650;2023-02-01T07:07:00;5.82;;;2.20;;
43118;SDS011;28729;49.838;8.650;2023-02-01T07:11:03;8.57;;;2.47;;
43118;SDS011;28729;49.838;8.650;2023-02-01T07:15:08;8.40;;;3.17;;
43118;SDS011;28729;49.838;8.650;2023-02-01T07:19:11;11.93;;;4.75;;
43118;SDS011;28729;49.838;8.650;2023-02-01T07:23:12;9.20;;;3.60;;
43118;SDS011;28729;49.838;8.650;2023-02-01T07:27:14;8.52;;;2.92;;
43118;SDS011;28729;49.838;8.650;2023-02-01T07:31:17;15.10;;;4.50;;
43118;SDS011;28729;49.838;8.650;2023-02-01T07:35:22;8.10;;;3.72;;
43118;SDS011;28729;49.838;8.650;2023-02-01T07:39:23;9.68;;;4.18;;
43118;SDS011;28729;49.838;8.650;2023-02-01T07:43:25;10.32;;;4.50;;
43118;SDS011;28729;49.838;8.650;2023-02-01T07:47:27;11.02;;;4.57;;
43118;SDS011;28729;49.838;8.650;2023-02-01T07:51:29;12.07;;;4.38;;
43118;SDS011;28729;49.838;8.650;2023-02-01T07:55:31;16.20;;;5.68;;
43118;SDS011;28729;49.838;8.650;2023-02-01T07:59:32;13.82;;;5.63;;
43118;SDS011;28729;49.838;8.650;2023-02-01T08:03:34;20.45;;;6.80;;
43118;SDS011;28729;49.838;8.650;2023-02-01T08:11:38;13.60;;;6.05;;
43118;SDS011;28729;49.838;8.650;2023-02-01T08:15:42;14.10;;;6.63;;
43118;SDS011;28729;49.838;8.650;2023-02-01T08:19:44;16.45;;;7.20;;
43118;SDS011;28729;49.838;8.650;2023-02-01T08:23:45;12.88;;;6.07;;
43118;SDS011;28729;49.838;8.650;2023-02-01T08:27:47;18.90;;;6.22;;
43118;SDS011;28729;49.838;8.650;2023-02-01T08:31:49;22.50;;;5.40;;
43118;SDS011;28729;49.838;8.650;2023-02-01T08:35:52;12.15;;;4.75;;
43118;SDS011;28729;49.838;8.650;2023-02-01T08:39:53;11.95;;;4.75;;
43118;SDS011;28729;49.838;8.650;2023-02-01T08:43:55;16.15;;;5.15;;
43118;SDS011;28729;49.838;8.650;2023-02-01T08:47:57;15.35;;;4.75;;
43118;SDS011;28729;49.838;8.650;2023-02-01T08:51:59;11.57;;;4.95;;
43118;SDS011;28729;49.838;8.650;2023-02-01T08:56:07;12.70;;;4.97;;
43118;SDS011;28729;49.838;8.650;2023-02-01T09:00:12;10.77;;;4.95;;
43118;SDS011;28729;49.838;8.650;2023-02-01T09:04:16;11.40;;;4.25;;
43118;SDS011;28729;49.838;8.650;2023-02-01T09:08:18;10.30;;;4.45;;
43118;SDS011;28729;49.838;8.650;2023-02-01T09:16:23;15.80;;;3.88;;
43118;SDS011;28729;49.838;8.650;2023-02-01T09:20:25;12.20;;;3.75;;
43118;SDS011;28729;49.838;8.650;2023-02-01T09:24:27;13.50;;;4.00;;
43118;SDS011;28729;49.838;8.650;2023-02-01T09:28:29;10.43;;;3.90;;
43118;SDS011;28729;49.838;8.650;2023-02-01T09:32:30;11.45;;;3.92;;
43118;SDS011;28729;49.838;8.650;2023-02-01T09:36:32;11.43;;;3.08;;
43118;SDS011;28729;49.838;8.650;2023-02-01T09:40:35;10.77;;;3.63;;
43118;SDS011;28729;49.838;8.650;2023-02-01T09:49:08;13.73;;;3.20;;
43118;SDS011;28729;49.838;8.650;2023-02-01T09:53:25;12.25;;;2.72;;
43118;SDS011;28729;49.838;8.650;2023-02-01T09:57:37;8.20;;;2.95;;
43118;SDS011;28729;49.838;8.650;2023-02-01T10:01:44;9.88;;;2.08;;
43118;SDS011;28729;49.838;8.650;2023-02-01T10:23:04;11.15;;;3.33;;
43118;SDS011;28729;49.838;8.650;2023-02-01T10:27:35;9.18;;;2.03;;
43118;SDS011;28729;49.838;8.650;2023-02-01T10:31:39;10.40;;;2.33;;
43118;SDS011;28729;49.838;8.650;2023-02-01T10:35:40;9.60;;;2.30;;
43118;SDS011;28729;49.838;8.650;2023-02-01T10:39:48;8.82;;;1.85;;
43118;SDS011;28729;49.838;8.650;2023-02-01T10:43:53;13.38;;;2.10;;
43118;SDS011;28729;49.838;8.650;2023-02-01T10:47:59;9.95;;;2.90;;
43118;SDS011;28729;49.838;8.650;2023-02-01T10:52:11;8.65;;;1.95;;
43118;SDS011;28729;49.838;8.650;2023-02-01T10:56:21;6.47;;;2.55;;
43118;SDS011;28729;49.838;8.650;2023-02-01T11:05:09;4.78;;;1.58;;
43118;SDS011;28729;49.838;8.650;2023-02-01T11:09:22;10.20;;;1.98;;
43118;SDS011;28729;49.838;8.650;2023-02-01T11:13:28;8.25;;;1.60;;
43118;SDS011;28729;49.838;8.650;2023-02-01T11:17:34;8.73;;;2.22;;
43118;SDS011;28729;49.838;8.650;2023-02-01T11:21:41;8.07;;;2.20;;
43118;SDS011;28729;49.838;8.650;2023-02-01T11:34:37;10.50;;;1.92;;
43118;SDS011;28729;49.838;8.650;2023-02-01T11:38:52;8.18;;;2.05;;
43118;SDS011;28729;49.838;8.650;2023-02-01T11:42:59;11.73;;;3.40;;
43118;SDS011;28729;49.838;8.650;2023-02-01T11:55:56;7.50;;;1.83;;
43118;SDS011;28729;49.838;8.650;2023-02-01T12:01:03;10.82;;;1.88;;
43118;SDS011;28729;49.838;8.650;2023-02-01T12:45:56;5.30;;;1.80;;
43118;SDS011;28729;49.838;8.650;2023-02-01T12:50:11;6.40;;;1.55;;
43118;SDS011;28729;49.838;8.650;2023-02-01T12:58:53;9.60;;;1.92;;
43118;SDS011;28729;49.838;8.650;2023-02-01T13:07:36;8.27;;;2.08;;
43118;SDS011;28729;49.838;8.650;2023-02-01T13:11:43;7.10;;;1.92;;
43118;SDS011;28729;49.838;8.650;2023-02-01T13:15:56;9.75;;;1.92;;
43118;SDS011;28729;49.838;8.650;2023-02-01T13:20:19;6.45;;;2.25;;
43118;SDS011;28729;49.838;8.650;2023-02-01T13:24:37;10.15;;;2.67;;
43118;SDS011;28729;49.838;8.650;2023-02-01T13:28:45;10.68;;;2.53;;
43118;SDS011;28729;49.838;8.650;2023-02-01T13:37:38;7.78;;;2.17;;
43118;SDS011;28729;49.838;8.650;2023-02-01T13:41:55;7.93;;;2.05;;
43118;SDS011;28729;49.838;8.650;2023-02-01T13:46:05;9.10;;;2.15;;
43118;SDS011;28729;49.838;8.650;2023-02-01T13:54:26;8.15;;;2.50;;
43118;SDS011;28729;49.838;8.650;2023-02-01T13:58:42;11.95;;;2.42;;
43118;SDS011;28729;49.838;8.650;2023-02-01T14:02:50;8.80;;;2.42;;
43118;SDS011;28729;49.838;8.650;2023-02-01T14:11:32;10.32;;;2.25;;
43118;SDS011;28729;49.838;8.650;2023-02-01T14:15:37;10.55;;;1.73;;
43118;SDS011;28729;49.838;8.650;2023-02-01T14:19:39;11.10;;;2.17;;
43118;SDS011;28729;49.838;8.650;2023-02-01T14:23:42;5.40;;;1.85;;
43118;SDS011;28729;49.838;8.650;2023-02-01T14:27:45;8.55;;;1.48;;
43118;SDS011;28729;49.838;8.650;2023-02-01T14:31:52;10.30;;;1.80;;
43118;SDS011;28729;49.838;8.650;2023-02-01T14:36:13;8.55;;;1.70;;
43118;SDS011;28729;49.838;8.650;2023-02-01T14:40:19;7.70;;;1.77;;
43118;SDS011;28729;49.838;8.650;2023-02-01T14:44:26;11.00;;;1.83;;
43118;SDS011;28729;49.838;8.650;2023-02-01T14:52:50;8.23;;;2.10;;
43118;SDS011;28729;49.838;8.650;2023-02-01T14:57:02;7.07;;;2.85;;
43118;SDS011;28729;49.838;8.650;2023-02-01T15:01:13;10.48;;;2.72;;
43118;SDS011;28729;49.838;8.650;2023-02-01T15:05:35;11.10;;;2.38;;
43118;SDS011;28729;49.838;8.650;2023-02-01T15:09:43;11.52;;;2.80;;
43118;SDS011;28729;49.838;8.650;2023-02-01T15:13:49;9.10;;;2.53;;
43118;SDS011;28729;49.838;8.650;2023-02-01T15:17:54;10.10;;;2.10;;
43118;SDS011;28729;49.838;8.650;2023-02-01T15:22:03;7.80;;;2.60;;
43118;SDS011;28729;49.838;8.650;2023-02-01T15:26:05;9.25;;;2.83;;
43118;SDS011;28729;49.838;8.650;2023-02-01T15:30:07;9.88;;;2.70;;
43118;SDS011;28729;49.838;8.650;2023-02-01T15:34:10;9.90;;;2.00;;
43118;SDS011;28729;49.838;8.650;2023-02-01T15:42:28;6.57;;;2.45;;
43118;SDS011;28729;49.838;8.650;2023-02-01T15:46:34;14.98;;;2.75;;
43118;SDS011;28729;49.838;8.650;2023-02-01T15:50:38;8.57;;;1.67;;
43118;SDS011;28729;49.838;8.650;2023-02-01T15:54:43;9.73;;;2.05;;
43118;SDS011;28729;49.838;8.650;2023-02-01T15:58:51;9.55;;;2.42;;
43118;SDS011;28729;49.838;8.650;2023-02-01T16:02:59;9.70;;;2.35;;
43118;SDS011;28729;49.838;8.650;2023-02-01T16:07:04;7.72;;;1.98;;
43118;SDS011;28729;49.838;8.650;2023-02-01T16:11:39;10.77;;;2.20;;
43118;SDS011;28729;49.838;8.650;2023-02-01T16:15:43;3.80;;;2.30;;
43118;SDS011;28729;49.838;8.650;2023-02-01T16:19:45;10.53;;;1.63;;
43118;SDS011;28729;49.838;8.650;2023-02-01T16:23:50;8.00;;;1.65;;
43118;SDS011;28729;49.838;8.650;2023-02-01T16:27:52;6.20;;;1.83;;
43118;SDS011;28729;49.838;8.650;2023-02-01T16:31:55;8.63;;;1.95;;
43118;SDS011;28729;49.838;8.650;2023-02-01T16:35:57;10.07;;;2.75;;
43118;SDS011;28729;49.838;8.650;2023-02-01T16:40:01;10.70;;;2.22;;
43118;SDS011;28729;49.838;8.650;2023-02-01T16:44:03;11.68;;;2.58;;
43118;SDS011;28729;49.838;8.650;2023-02-01T16:48:05;8.65;;;2.60;;
43118;SDS011;28729;49.838;8.650;2023-02-01T16:52:11;7.20;;;2.30;;
43118;SDS011;28729;49.838;8.650;2023-02-01T16:56:17;10.63;;;2.63;;
43118;SDS011;28729;49.838;8.650;2023-02-01T17:00:21;10.13;;;2.15;;
43118;SDS011;28729;49.838;8.650;2023-02-01T17:04:26;9.00;;;2.13;;
43118;SDS011;28729;49.838;8.650;2023-02-01T17:08:31;16.90;;;2.72;;
43118;SDS011;28729;49.838;8.650;2023-02-01T17:12:35;9.45;;;2.33;;
43118;SDS011;28729;49.838;8.650;2023-02-01T17:16:37;10.20;;;2.75;;
43118;SDS011;28729;49.838;8.650;2023-02-01T17:20:39;9.05;;;2.33;;
43118;SDS011;28729;49.838;8.650;2023-02-01T17:24:41;10.82;;;2.60;;
43118;SDS011;28729;49.838;8.650;2023-02-01T17:28:48;12.35;;;2.10;;
43118;SDS011;28729;49.838;8.650;2023-02-01T17:32:51;8.15;;;2.30;;
43118;SDS011;28729;49.838;8.650;2023-02-01T17:40:54;8.57;;;3.80;;
43118;SDS011;28729;49.838;8.650;2023-02-01T17:44:57;12.82;;;3.63;;
43118;SDS011;28729;49.838;8.650;2023-02-01T17:49:01;11.90;;;2.40;;
43118;SDS011;28729;49.838;8.650;2023-02-01T17:57:13;7.10;;;2.97;;
43118;SDS011;28729;49.838;8.650;2023-02-01T18:01:17;14.95;;;2.95;;
43118;SDS011;28729;49.838;8.650;2023-02-01T18:05:27;14.18;;;2.50;;
43118;SDS011;28729;49.838;8.650;2023-02-01T18:09:37;12.07;;;3.53;;
43118;SDS011;28729;49.838;8.650;2023-02-01T18:13:39;12.13;;;2.67;;
43118;SDS011;28729;49.838;8.650;2023-02-01T18:17:41;8.02;;;2.55;;
43118;SDS011;28729;49.838;8.650;2023-02-01T18:21:43;11.90;;;2.30;;
43118;SDS011;28729;49.838;8.650;2023-02-01T18:25:45;11.88;;;3.33;;
43118;SDS011;28729;49.838;8.650;2023-02-01T18:29:47;9.38;;;2.70;;
43118;SDS011;28729;49.838;8.650;2023-02-01T18:33:49;8.35;;;2.97;;
43118;SDS011;28729;49.838;8.650;2023-02-01T18:37:53;8.88;;;2.80;;
43118;SDS011;28729;49.838;8.650;2023-02-01T18:41:57;10.93;;;2.53;;
43118;SDS011;28729;49.838;8.650;2023-02-01T18:45:59;12.15;;;2.25;;
43118;SDS011;28729;49.838;8.650;2023-02-01T18:50:00;12.70;;;3.38;;
43118;SDS011;28729;49.838;8.650;2023-02-01T18:54:02;7.53;;;3.03;;
43118;SDS011;28729;49.838;8.650;2023-02-01T18:58:04;12.68;;;2.95;;
43118;SDS011;28729;49.838;8.650;2023-02-01T19:02:10;11.43;;;3.20;;
43118;SDS011;28729;49.838;8.650;2023-02-01T19:06:13;11.70;;;3.80;;
43118;SDS011;28729;49.838;8.650;2023-02-01T19:10:19;10.07;;;2.80;;
43118;SDS011;28729;49.838;8.650;2023-02-01T19:14:22;6.72;;;2.45;;
43118;SDS011;28729;49.838;8.650;2023-02-01T19:18:25;14.20;;;2.92;;
43118;SDS011;28729;49.838;8.650;2023-02-01T19:22:27;8.98;;;2.65;;
43118;SDS011;28729;49.838;8.650;2023-02-01T19:26:28;8.02;;;2.35;;
43118;SDS011;28729;49.838;8.650;2023-02-01T19:30:30;10.45;;;3.10;;
43118;SDS011;28729;49.838;8.650;2023-02-01T19:34:32;10.43;;;2.55;;
43118;SDS011;28729;49.838;8.650;2023-02-01T19:38:34;9.93;;;2.53;;
43118;SDS011;28729;49.838;8.650;2023-02-01T19:42:54;9.53;;;3.10;;
43118;SDS011;28729;49.838;8.650;2023-02-01T19:46:57;17.55;;;2.63;;
43118;SDS011;28729;49.838;8.650;2023-02-01T19:51:00;14.35;;;2.47;;
43118;SDS011;28729;49.838;8.650;2023-02-01T19:55:04;12.75;;;3.38;;
43118;SDS011;28729;49.838;8.650;2023-02-01T19:59:07;9.05;;;3.42;;
43118;SDS011;28729;49.838;8.650;2023-02-01T20:03:10;11.57;;;2.67;;
43118;SDS011;28729;49.838;8.650;2023-02-01T20:07:14;12.33;;;2.73;;
43118;SDS011;28729;49.838;8.650;2023-02-01T20:11:18;12.70;;;2.97;;
43118;SDS011;28729;49.838;8.650;2023-02-01T20:15:25;12.38;;;3.03;;
43118;SDS011;28729;49.838;8.650;2023-02-01T20:19:29;8.35;;;2.92;;
43118;SDS011;28729;49.838;8.650;2023-02-01T20:23:35;21.10;;;3.10;;
43118;SDS011;28729;49.838;8.650;2023-02-01T20:32:06;9.88;;;2.78;;
43118;SDS011;28729;49.838;8.650;2023-02-01T20:36:09;10.90;;;2.67;;
43118;SDS011;28729;49.838;8.650;2023-02-01T20:40:11;10.93;;;2.22;;
43118;SDS011;28729;49.838;8.650;2023-02-01T20:44:15;13.33;;;2.60;;
43118;SDS011;28729;49.838;8.650;2023-02-01T20:48:16;11.45;;;2.65;;
43118;SDS011;28729;49.838;8.650;2023-02-01T20:52:21;9.38;;;2.42;;
43118;SDS011;28729;49.838;8.650;2023-02-01T20:56:24;9.70;;;3.03;;
43118;SDS011;28729;49.838;8.650;2023-02-01T21:00:27;7.68;;;2.75;;
43118;SDS011;28729;49.838;8.650;2023-02-01T21:04:30;15.68;;;3.50;;
43118;SDS011;28729;49.838;8.650;2023-02-01T21:08:33;8.88;;;2.50;;
43118;SDS011;28729;49.838;8.650;2023-02-01T21:12:35;16.23;;;3.17;;
43118;SDS011;28729;49.838;8.650;2023-02-01T21:16:37;14.15;;;2.97;;
43118;SDS011;28729;49.838;8.650;2023-02-01T21:20:42;10.85;;;2.30;;
43118;SDS011;28729;49.838;8.650;2023-02-01T21:25:04;9.20;;;2.65;;
43118;SDS011;28729;49.838;8.650;2023-02-01T21:29:11;6.78;;;2.28;;
43118;SDS011;28729;49.838;8.650;2023-02-01T21:33:13;8.32;;;2.45;;
43118;SDS011;28729;49.838;8.650;2023-02-01T21:37:15;10.23;;;2.28;;
43118;SDS011;28729;49.838;8.650;2023-02-01T21:41:21;15.45;;;2.80;;
43118;SDS011;28729;49.838;8.650;2023-02-01T21:45:43;7.50;;;2.05;;
43118;SDS011;28729;49.838;8.650;2023-02-01T21:49:51;10.40;;;2.85;;
43118;SDS011;28729;49.838;8.650;2023-02-01T21:53:53;9.03;;;2.50;;
43118;SDS011;28729;49.838;8.650;2023-02-01T21:57:55;17.20;;;3.20;;
43118;SDS011;28729;49.838;8.650;2023-02-01T22:01:57;6.95;;;2.35;;
43118;SDS011;28729;49.838;8.650;2023-02-01T22:05:58;14.18;;;2.70;;
43118;SDS011;28729;49.838;8.650;2023-02-01T22:10:00;9.93;;;1.98;;
43118;SDS011;28729;49.838;8.650;2023-02-01T22:14:02;7.03;;;1.70;;
43118;SDS011;28729;49.838;8.650;2023-02-01T22:18:04;9.13;;;2.15;;
43118;SDS011;28729;49.838;8.650;2023-02-01T22:22:06;12.83;;;2.77;;
43118;SDS011;28729;49.838;8.650;2023-02-01T22:26:08;10.80;;;2.42;;
43118;SDS011;28729;49.838;8.650;2023-02-01T22:30:13;11.20;;;2.55;;
43118;SDS011;28729;49.838;8.650;2023-02-01T22:34:14;17.30;;;2.50;;
43118;SDS011;28729;49.838;8.650;2023-02-01T22:38:16;12.98;;;2.20;;
43118;SDS011;28729;49.838;8.650;2023-02-01T22:42:18;9.15;;;2.47;;
43118;SDS011;28729;49.838;8.650;2023-02-01T22:46:22;8.90;;;1.92;;
43118;SDS011;28729;49.838;8.650;2023-02-01T22:50:25;8.63;;;2.00;;
43118;SDS011;28729;49.838;8.650;2023-02-01T22:54:27;8.60;;;2.35;;
43118;SDS011;28729;49.838;8.650;2023-02-01T22:58:28;7.43;;;2.65;;
43118;SDS011;28729;49.838;8.650;2023-02-01T23:02:31;12.32;;;1.95;;
43118;SDS011;28729;49.838;8.650;2023-02-01T23:06:32;16.27;;;2.53;;
43118;SDS011;28729;49.838;8.650;2023-02-01T23:10:35;9.85;;;3.17;;
43118;SDS011;28729;49.838;8.650;2023-02-01T23:14:36;9.30;;;2.63;;
43118;SDS011;28729;49.838;8.650;2023-02-01T23:18:58;12.18;;;2.58;;
43118;SDS011;28729;49.838;8.650;2023-02-01T23:23:00;8.45;;;2.92;;
43118;SDS011;28729;49.838;8.650;2023-02-01T23:27:02;12.45;;;2.47;;
43118;SDS011;28729;49.838;8.650;2023-02-01T23:31:07;11.13;;;2.80;;
43118;SDS011;28729;49.838;8.650;2023-02-01T23:35:10;9.38;;;2.58;;
43118;SDS011;28729;49.838;8.650;2023-02-01T23:39:11;7.47;;;3.20;;
43118;SDS011;28729;49.838;8.650;2023-02-01T23:43:13;6.50;;;2.33;;
43118;SDS011;28729;49.838;8.650;2023-02-01T23:47:33;11.02;;;2.20;;
43118;SDS011;28729;49.838;8.650;2023-02-01T23:51:35;12.55;;;2.58;;
43118;SDS011;28729;49.838;8.650;2023-02-01T23:55:37;11.45;;;2.55;;
43118;SDS011;28729;49.838;8.650;2023-02-01T23:59:38;15.80;;;3.05;;
